Time;durP1;ratioP1;P1;durP2;ratioP2;P2;SDS_P1;SDS_P2;PMS_P1;PMS_P2;Temp;Humidity;BMP_temperature;BMP_pressure;BME280_temperature;BME280_humidity;BME280_pressure;Samples;Min_cycle;Max_cycle;Signal;HPM_P1;HPM_P2
2023/02/06 00:01:02;;;;;;;;;;;;;;;15.44;66.66;102087.91;7410153;19;1729;-78
2023/02/06 00:03:34;;;;;;;;;;;;;;;15.43;66.63;102086.19;7408650;19;1797;-78
2023/02/06 00:06:03;;;;;;;;;;;;;;;15.44;66.77;102094.09;7409427;19;1859;-78
2023/02/06 00:08:34;;;;;;;;;;;;;;;15.39;66.21;102096.13;7409637;19;1596;-78
2023/02/06 00:11:04;;;;;;;;;;;;;;;15.38;66.33;102090.88;7409716;19;1649;-78
2023/02/06 00:13:32;;;;;;;;;;;;;;;15.37;66.75;102108.69;7411309;19;1075;-78
2023/02/06 00:16:01;;;;;;;;;;;;;;;15.40;66.67;102116.53;7406613;19;1722;-78
2023/02/06 00:18:29;;;;;;;;;;;;;;;15.35;66.57;102107.91;7409460;19;1554;-78
2023/02/06 00:20:57;;;;;;;;;;;;;;;15.36;66.94;102104.31;7410186;19;1664;-78
2023/02/06 00:23:25;;;;;;;;;;;;;;;15.35;66.68;102102.56;7409849;19;1397;-78
2023/02/06 00:25:57;;;;;;;;;;;;;;;15.32;66.39;102090.25;7411313;19;1858;-78
2023/02/06 00:28:25;;;;;;;;;;;;;;;15.37;66.74;102108.69;7408955;19;1530;-78
2023/02/06 00:30:54;;;;;;;;;;;;;;;15.38;66.84;102107.75;7408586;19;1733;-78
2023/02/06 00:33:22;;;;;;;;;;;;;;;15.34;66.62;102098.19;7409721;19;1474;-78
2023/02/06 00:35:50;;;;;;;;;;;;;;;15.32;66.56;102105.41;7410616;19;1453;-78
2023/02/06 00:38:18;;;;;;;;;;;;;;;15.31;66.81;102101.00;7410697;19;1435;-78
2023/02/06 00:40:47;;;;;;;;;;;;;;;15.28;66.73;102112.69;7411141;19;1123;-78
2023/02/06 00:43:19;;;;;;;;;;;;;;;15.28;66.35;102118.03;7409151;19;1825;-79
2023/02/06 00:45:47;;;;;;;;;;;;;;;15.27;66.47;102126.09;7409463;19;1833;-79
2023/02/06 00:48:15;;;;;;;;;;;;;;;15.27;66.68;102123.41;7409412;19;1649;-78
2023/02/06 00:50:43;;;;;;;;;;;;;;;15.22;66.56;102112.13;7410128;19;1592;-78
2023/02/06 00:53:12;;;;;;;;;;;;;;;15.22;66.63;102106.78;7410407;19;1007;-78
2023/02/06 00:55:40;;;;;;;;;;;;;;;15.22;66.60;102093.47;7409033;19;1582;-78
2023/02/06 00:58:08;;;;;;;;;;;;;;;15.23;66.39;102103.19;7409932;19;1723;-78
2023/02/06 01:00:39;;;;;;;;;;;;;;;15.21;66.71;102092.59;7407326;19;1698;-78
2023/02/06 01:03:07;;;;;;;;;;;;;;;15.25;66.53;102093.31;7409201;19;1549;-78
2023/02/06 01:05:36;;;;;;;;;;;;;;;15.23;66.56;102081.88;7408966;19;1872;-78
2023/02/06 01:08:04;;;;;;;;;;;;;;;15.28;66.51;102078.03;7408377;19;987;-78
2023/02/06 01:10:32;;;;;;;;;;;;;;;15.66;64.74;102092.97;7407967;19;1718;-78
2023/02/06 01:13:01;;;;;;;;;;;;;;;16.33;62.78;102098.28;7414659;19;1490;-78
2023/02/06 01:15:30;;;;;;;;;;;;;;;16.90;61.51;102083.44;7414915;19;1572;-78
2023/02/06 01:18:01;;;;;;;;;;;;;;;17.35;60.16;102070.13;7413323;19;1329;-78
2023/02/06 01:20:29;;;;;;;;;;;;;;;17.67;59.65;102067.28;7413171;19;1609;-78
2023/02/06 01:22:58;;;;;;;;;;;;;;;17.83;58.82;102086.81;7417254;19;1043;-78
2023/02/06 01:25:26;;;;;;;;;;;;;;;17.81;58.77;102080.66;7415948;19;1742;-78
2023/02/06 01:27:55;;;;;;;;;;;;;;;17.89;58.87;102080.22;7414616;19;1969;-78
2023/02/06 01:30:24;;;;;;;;;;;;;;;17.85;59.12;102063.50;7413671;19;1631;-78
2023/02/06 01:32:52;;;;;;;;;;;;;;;17.77;59.27;102087.16;7415178;19;1407;-78
2023/02/06 01:35:23;;;;;;;;;;;;;;;17.57;59.91;102082.19;7412395;19;1539;-78
2023/02/06 01:37:51;;;;;;;;;;;;;;;17.41;59.82;102077.78;7417391;19;1007;-78
2023/02/06 01:40:20;;;;;;;;;;;;;;;17.48;60.12;102080.94;7414862;19;1514;-78
2023/02/06 01:42:48;;;;;;;;;;;;;;;17.41;60.26;102071.56;7413249;19;1496;-78
2023/02/06 01:45:34;;;;;;;;;;;;;;;17.41;60.03;102061.72;7411837;19;1588;-78
2023/02/06 01:48:04;;;;;;;;;;;;;;;16.99;61.14;102078.50;7412758;19;1847;-78
2023/02/06 01:50:36;;;;;;;;;;;;;;;16.49;62.05;102077.78;7414915;19;1583;-78
2023/02/06 01:53:06;;;;;;;;;;;;;;;16.17;63.69;102083.09;7415964;19;1182;-78
2023/02/06 01:55:35;;;;;;;;;;;;;;;16.01;64.28;102071.56;7415918;19;1824;-78
2023/02/06 01:58:03;;;;;;;;;;;;;;;15.94;64.34;102080.88;7415126;19;1801;-78
2023/02/06 02:00:32;;;;;;;;;;;;;;;15.87;64.72;102089.16;7415945;19;1300;-78
2023/02/06 02:03:00;;;;;;;;;;;;;;;15.79;64.45;102088.72;7413564;19;1481;-78
2023/02/06 02:05:28;;;;;;;;;;;;;;;15.76;64.80;102104.06;7414401;19;1604;-78
2023/02/06 02:08:03;;;;;;;;;;;;;;;15.74;64.94;102101.47;7412578;19;1846;-78
2023/02/06 02:10:32;;;;;;;;;;;;;;;15.68;64.91;102102.63;7413639;19;1765;-78
2023/02/06 02:13:00;;;;;;;;;;;;;;;15.64;65.24;102094.88;7413544;19;1664;-78
2023/02/06 02:15:32;;;;;;;;;;;;;;;15.60;65.10;102106.63;7413459;19;1348;-78
2023/02/06 02:18:04;;;;;;;;;;;;;;;15.56;65.41;102100.59;7411771;19;1668;-78
2023/02/06 02:20:53;;;;;;;;;;;;;;;15.51;65.53;102092.81;7413959;19;1611;-78
2023/02/06 02:23:29;;;;;;;;;;;;;;;15.48;65.52;102109.00;7410703;19;1476;-78
2023/02/06 02:26:20;;;;;;;;;;;;;;;15.43;65.61;102089.69;7414263;19;1439;-78
2023/02/06 02:29:00;;;;;;;;;;;;;;;15.42;65.51;102105.75;7415465;19;1129;-78
2023/02/06 02:31:50;;;;;;;;;;;;;;;15.42;65.51;102095.09;7410764;19;1490;-78
2023/02/06 02:34:33;;;;;;;;;;;;;;;15.37;65.64;102098.00;7411217;19;1495;-78
2023/02/06 02:37:10;;;;;;;;;;;;;;;15.37;65.40;102114.00;7413567;19;1767;-78
2023/02/06 02:39:45;;;;;;;;;;;;;;;15.34;65.63;102108.84;7412880;19;1726;-78
2023/02/06 02:42:15;;;;;;;;;;;;;;;15.31;65.51;102104.50;7411767;19;1463;-78
2023/02/06 02:44:48;;;;;;;;;;;;;;;15.32;65.56;102102.75;7413146;19;1408;-78
2023/02/06 02:47:19;;;;;;;;;;;;;;;15.36;65.27;102114.06;7411056;19;1837;-78
2023/02/06 02:49:48;;;;;;;;;;;;;;;15.39;65.00;102109.47;7410965;19;1588;-78
2023/02/06 02:52:20;;;;;;;;;;;;;;;16.14;62.73;102085.97;7414713;19;1122;-78
2023/02/06 02:54:48;;;;;;;;;;;;;;;17.20;59.90;102106.66;7411841;19;1893;-78
2023/02/06 02:57:22;;;;;;;;;;;;;;;18.16;57.28;102090.13;7411686;19;1674;-78
2023/02/06 02:59:51;;;;;;;;;;;;;;;18.59;56.44;102098.94;7412070;19;1652;-78
2023/02/06 03:02:21;;;;;;;;;;;;;;;18.78;56.00;102103.97;7399040;19;2420;-41
2023/02/06 03:04:50;;;;;;;;;;;;;;;18.78;56.03;102092.34;7402887;19;1662;-40
2023/02/06 03:07:27;;;;;;;;;;;;;;;19.02;55.79;102089.88;7396687;19;2225;-41
2023/02/06 03:10:00;;;;;;;;;;;;;;;19.15;55.33;102095.28;7402025;19;1935;-41
2023/02/06 03:12:35;;;;;;;;;;;;;;;19.14;55.46;102098.94;7402490;19;1677;-41
2023/02/06 03:15:05;;;;;;;;;;;;;;;19.03;55.40;102087.09;7400555;19;1659;-41
2023/02/06 03:17:36;;;;;;;;;;;;;;;19.07;55.67;102091.28;7398273;19;2097;-40
2023/02/06 03:20:06;;;;;;;;;;;;;;;19.18;55.44;102089.72;7399923;19;1670;-40
2023/02/06 03:22:38;;;;;;;;;;;;;;;19.15;55.82;102087.25;7402220;19;1906;-41
2023/02/06 03:25:09;;;;;;;;;;;;;;;19.27;55.50;102099.81;7401875;19;1754;-40
2023/02/06 03:27:38;;;;;;;;;;;;;;;19.32;55.06;102107.53;7399527;19;2257;-40
2023/02/06 03:30:07;;;;;;;;;;;;;;;19.26;55.30;102092.75;7402068;19;1895;-40
2023/02/06 03:32:38;;;;;;;;;;;;;;;19.36;55.24;102088.47;7402662;19;1948;-40
2023/02/06 03:35:09;;;;;;;;;;;;;;;19.36;55.09;102101.88;7400919;19;1616;-40
2023/02/06 03:37:40;;;;;;;;;;;;;;;19.38;55.19;102089.22;7401864;19;1681;-40
2023/02/06 03:40:09;;;;;;;;;;;;;;;19.42;55.10;102096.09;7401021;19;2077;-40
2023/02/06 03:42:40;;;;;;;;;;;;;;;19.50;54.86;102097.38;7401223;19;1750;-40
2023/02/06 03:45:11;;;;;;;;;;;;;;;19.58;54.59;102111.97;7401507;19;2145;-40
2023/02/06 03:47:40;;;;;;;;;;;;;;;19.70;54.40;102107.59;7398879;19;1869;-40
2023/02/06 03:50:10;;;;;;;;;;;;;;;19.62;54.62;102105.44;7399717;19;1852;-40
2023/02/06 03:52:42;;;;;;;;;;;;;;;19.68;54.28;102105.00;7401192;19;1715;-40
2023/02/06 03:55:13;;;;;;;;;;;;;;;19.71;54.46;102109.31;7400168;19;1709;-40
2023/02/06 03:57:43;;;;;;;;;;;;;;;19.72;54.67;102102.16;7401074;19;1812;-40
2023/02/06 04:00:12;;;;;;;;;;;;;;;19.68;54.90;102117.56;7400221;19;1681;-40
2023/02/06 04:02:42;;;;;;;;;;;;;;;19.75;54.43;102088.50;7399978;19;1885;-40
2023/02/06 04:05:10;;;;;;;;;;;;;;;19.85;54.02;102106.50;7399434;19;1818;-40
2023/02/06 04:07:41;;;;;;;;;;;;;;;19.83;54.67;102110.28;7400575;19;1878;-40
2023/02/06 04:10:10;;;;;;;;;;;;;;;19.82;54.42;102117.50;7400392;19;2034;-40
2023/02/06 04:12:38;;;;;;;;;;;;;;;19.85;54.27;102106.50;7401301;19;1875;-40
2023/02/06 04:15:07;;;;;;;;;;;;;;;19.81;54.30;102107.69;7400502;19;1655;-40
2023/02/06 04:17:36;;;;;;;;;;;;;;;19.77;54.69;102116.94;7400366;19;1884;-40
2023/02/06 04:20:04;;;;;;;;;;;;;;;19.84;54.62;102112.88;7398599;19;1832;-40
2023/02/06 04:22:33;;;;;;;;;;;;;;;19.81;54.93;102120.28;7399967;19;1568;-40
2023/02/06 04:25:04;;;;;;;;;;;;;;;19.91;54.31;102120.50;7400719;19;1865;-40
2023/02/06 04:27:34;;;;;;;;;;;;;;;19.86;54.42;102129.72;7399465;19;1865;-40
2023/02/06 04:30:02;;;;;;;;;;;;;;;19.88;54.61;102118.03;7400407;19;1771;-40
2023/02/06 04:32:31;;;;;;;;;;;;;;;19.31;55.28;102117.41;7400866;19;1904;-40
2023/02/06 04:34:59;;;;;;;;;;;;;;;18.43;57.88;102111.63;7400619;19;1702;-40
2023/02/06 04:37:27;;;;;;;;;;;;;;;17.82;59.29;102122.50;7400090;19;2346;-40
2023/02/06 04:39:56;;;;;;;;;;;;;;;17.51;60.54;102134.25;7399301;19;1842;-40
2023/02/06 04:42:27;;;;;;;;;;;;;;;17.95;58.96;102114.63;7400067;19;1894;-40
2023/02/06 04:44:56;;;;;;;;;;;;;;;18.80;56.94;102127.97;7400072;19;1901;-40
2023/02/06 04:47:26;;;;;;;;;;;;;;;19.64;54.79;102132.16;7402386;19;1968;-41
2023/02/06 04:49:54;;;;;;;;;;;;;;;19.64;54.69;102124.13;7405459;19;1874;-40
2023/02/06 04:52:22;;;;;;;;;;;;;;;19.79;54.49;102141.00;7407412;19;1537;-40
2023/02/06 04:54:51;;;;;;;;;;;;;;;19.78;54.37;102129.41;7406816;19;1862;-40
2023/02/06 04:57:19;;;;;;;;;;;;;;;19.71;54.84;102136.16;7406210;19;1792;-40
2023/02/06 04:59:50;;;;;;;;;;;;;;;19.58;54.94;102138.81;7405884;19;1911;-40
2023/02/06 05:02:18;;;;;;;;;;;;;;;19.62;55.18;102153.75;7403179;19;1754;-40
2023/02/06 05:04:46;;;;;;;;;;;;;;;19.58;55.24;102151.38;7406300;19;1638;-40
2023/02/06 05:07:15;;;;;;;;;;;;;;;19.57;55.06;102138.91;7403775;19;1994;-40
2023/02/06 05:09:43;;;;;;;;;;;;;;;19.65;55.12;102153.50;7405102;19;1739;-40
2023/02/06 05:12:11;;;;;;;;;;;;;;;19.60;54.92;102141.41;7375612;19;13778;-40
2023/02/06 05:14:40;;;;;;;;;;;;;;;19.50;55.28;102159.06;7403709;19;1751;-40
2023/02/06 05:17:10;;;;;;;;;;;;;;;19.66;54.95;102170.50;7405705;19;1667;-40
2023/02/06 05:19:39;;;;;;;;;;;;;;;19.63;54.80;102152.75;7382908;19;13794;-40
2023/02/06 05:22:07;;;;;;;;;;;;;;;19.62;54.96;102159.09;7403732;19;1627;-40
2023/02/06 05:24:35;;;;;;;;;;;;;;;19.63;54.72;102163.50;7404964;19;1788;-40
2023/02/06 05:27:03;;;;;;;;;;;;;;;19.66;54.65;102186.59;7404914;19;1871;-40
2023/02/06 05:29:32;;;;;;;;;;;;;;;19.64;54.90;102172.44;7405767;19;1692;-40
2023/02/06 05:32:00;;;;;;;;;;;;;;;19.69;54.70;102178.31;7405220;19;1603;-40
2023/02/06 05:34:31;;;;;;;;;;;;;;;19.60;54.56;102170.91;7405848;19;2015;-40
2023/02/06 05:36:59;;;;;;;;;;;;;;;19.55;54.57;102173.91;7404831;19;2067;-40
2023/02/06 05:39:28;;;;;;;;;;;;;;;19.47;55.11;102173.56;7404650;19;1747;-40
2023/02/06 05:41:56;;;;;;;;;;;;;;;19.59;55.14;102170.03;7404653;19;1745;-40
2023/02/06 05:44:24;;;;;;;;;;;;;;;19.50;54.82;102186.78;7405125;19;1702;-40
2023/02/06 05:46:53;;;;;;;;;;;;;;;19.59;54.88;102164.66;7403228;19;1901;-43
2023/02/06 05:49:21;;;;;;;;;;;;;;;19.69;54.43;102162.22;7401388;19;1845;-40
2023/02/06 05:51:52;;;;;;;;;;;;;;;19.66;54.74;102173.19;7402527;19;1835;-40
2023/02/06 05:54:20;;;;;;;;;;;;;;;19.43;54.17;102170.22;7403524;19;1633;-40
2023/02/06 05:56:48;;;;;;;;;;;;;;;19.42;52.54;102171.22;7405059;19;1694;-40
2023/02/06 05:59:17;;;;;;;;;;;;;;;19.26;51.82;102168.69;7404828;19;1544;-40
2023/02/06 06:01:45;;;;;;;;;;;;;;;19.20;50.77;102179.84;7403204;19;1906;-40
2023/02/06 06:04:13;;;;;;;;;;;;;;;19.17;49.95;102179.19;7404075;19;1956;-40
2023/02/06 06:06:42;;;;;;;;;;;;;;;19.17;49.26;102184.53;7406103;19;1119;-40
2023/02/06 06:09:13;;;;;;;;;;;;;;;19.37;47.90;102184.06;7402400;19;1985;-40
2023/02/06 06:11:41;;;;;;;;;;;;;;;19.36;46.97;102184.16;7405419;19;1833;-40
2023/02/06 06:14:09;;;;;;;;;;;;;;;19.41;46.86;102185.56;7404106;19;1685;-40
2023/02/06 06:16:39;;;;;;;;;;;;;;;19.63;47.30;102192.16;7404780;19;1886;-40
2023/02/06 06:19:08;;;;;;;;;;;;;;;19.60;48.22;102195.91;7401276;19;1701;-40
2023/02/06 06:21:36;;;;;;;;;;;;;;;19.69;48.35;102191.75;6369742;19;10000201;-41
2023/02/06 06:24:04;;;;;;;;;;;;;;;19.80;48.83;102183.84;7397323;19;1686;-40
2023/02/06 06:26:35;;;;;;;;;;;;;;;19.77;49.61;102200.16;7385863;19;2068;-40
2023/02/06 06:29:04;;;;;;;;;;;;;;;19.75;49.96;102194.03;7393478;19;1876;-40
2023/02/06 06:31:32;;;;;;;;;;;;;;;19.73;50.02;102204.00;7396382;19;1752;-40
2023/02/06 06:34:00;;;;;;;;;;;;;;;19.67;50.66;102212.44;7396902;19;1995;-40
2023/02/06 06:36:28;;;;;;;;;;;;;;;19.74;50.92;102216.47;7398005;19;1551;-40
2023/02/06 06:38:58;;;;;;;;;;;;;;;19.80;50.61;102213.38;7397941;19;1688;-40
2023/02/06 06:41:26;;;;;;;;;;;;;;;19.72;51.04;102215.72;7395141;19;1944;-40
2023/02/06 06:43:59;;;;;;;;;;;;;;;19.77;51.07;102221.63;7397312;19;1711;-40
2023/02/06 06:46:27;;;;;;;;;;;;;;;19.84;51.13;102239.03;7397839;19;2003;-40
2023/02/06 06:48:55;;;;;;;;;;;;;;;19.78;51.22;102223.34;7397282;19;1872;-40
2023/02/06 06:51:25;;;;;;;;;;;;;;;19.86;51.20;102229.06;7397979;19;1946;-40
2023/02/06 06:53:53;;;;;;;;;;;;;;;19.86;51.38;102247.00;7396450;19;1676;-40
2023/02/06 06:56:22;;;;;;;;;;;;;;;19.71;51.58;102235.47;7395744;19;2270;-40
2023/02/06 06:58:50;;;;;;;;;;;;;;;19.80;51.71;102226.78;7396826;19;1663;-40
2023/02/06 07:01:21;;;;;;;;;;;;;;;19.79;51.61;102221.53;7397065;19;1888;-40
2023/02/06 07:03:50;;;;;;;;;;;;;;;19.84;51.86;102238.19;7398376;19;1625;-40
2023/02/06 07:06:19;;;;;;;;;;;;;;;19.85;51.71;102235.38;7396308;19;2336;-40
2023/02/06 07:08:47;;;;;;;;;;;;;;;19.91;51.70;102243.97;7391359;19;2196;-40
2023/02/06 07:11:17;;;;;;;;;;;;;;;19.95;51.69;102240.97;7396313;19;1765;-40
2023/02/06 07:13:46;;;;;;;;;;;;;;;19.88;51.96;102242.38;7395980;19;1911;-40
2023/02/06 07:16:14;;;;;;;;;;;;;;;19.96;52.11;102248.06;7397154;19;1681;-40
2023/02/06 07:18:45;;;;;;;;;;;;;;;19.92;51.94;102251.09;7397127;19;1806;-40
2023/02/06 07:21:14;;;;;;;;;;;;;;;19.84;52.28;102255.16;7394852;19;3152;-40
2023/02/06 07:23:43;;;;;;;;;;;;;;;19.95;52.24;102253.53;7390997;19;1690;-40
2023/02/06 07:26:11;;;;;;;;;;;;;;;19.95;52.10;102248.19;7394465;19;1770;-40
2023/02/06 07:28:41;;;;;;;;;;;;;;;19.98;52.15;102254.19;7397055;19;1865;-40
2023/02/06 07:31:09;;;;;;;;;;;;;;;19.94;52.56;102255.38;7394787;19;1871;-40
2023/02/06 07:33:37;;;;;;;;;;;;;;;20.02;52.14;102260.22;7395929;19;1736;-40
2023/02/06 07:36:10;;;;;;;;;;;;;;;20.00;52.28;102243.38;7394461;19;1720;-40
2023/02/06 07:38:39;;;;;;;;;;;;;;;20.12;52.10;102250.56;7394559;19;1524;-40
2023/02/06 07:41:07;;;;;;;;;;;;;;;19.16;53.92;102257.88;7395006;19;1856;-40
2023/02/06 07:43:36;;;;;;;;;;;;;;;18.43;55.75;102248.22;7396690;19;1521;-40
2023/02/06 07:46:05;;;;;;;;;;;;;;;18.13;56.99;102257.19;7395681;19;1763;-40
2023/02/06 07:48:34;;;;;;;;;;;;;;;18.56;55.82;102257.22;7394314;19;1863;-40
2023/02/06 07:51:06;;;;;;;;;;;;;;;19.40;53.93;102244.72;7395613;19;1525;-40
2023/02/06 07:53:37;;;;;;;;;;;;;;;19.90;52.57;102263.75;7396042;19;1943;-40
2023/02/06 07:56:11;;;;;;;;;;;;;;;20.19;51.65;102275.16;7397070;19;1717;-40
2023/02/06 07:58:39;;;;;;;;;;;;;;;20.32;51.48;102261.75;7395485;19;1634;-40
2023/02/06 08:01:08;;;;;;;;;;;;;;;20.08;52.25;102267.84;7393122;19;2001;-40
2023/02/06 08:03:37;;;;;;;;;;;;;;;20.02;53.19;102255.72;7393508;19;2043;-40
2023/02/06 08:06:08;;;;;;;;;;;;;;;19.95;53.60;102286.63;7395353;19;2022;-40
2023/02/06 08:08:40;;;;;;;;;;;;;;;19.82;54.27;102273.19;7393269;19;1866;-40
2023/02/06 08:11:09;;;;;;;;;;;;;;;19.82;54.25;102278.56;7395465;19;1575;-40
2023/02/06 08:13:38;;;;;;;;;;;;;;;19.85;54.24;102285.53;7399609;19;1887;-40
2023/02/06 08:16:07;;;;;;;;;;;;;;;19.81;54.35;102263.41;7397046;19;2306;-40
2023/02/06 08:18:36;;;;;;;;;;;;;;;19.83;54.55;102274.03;7386697;19;1652;-40
2023/02/06 08:21:04;;;;;;;;;;;;;;;19.90;54.04;102279.88;7395973;19;2005;-41
2023/02/06 08:23:33;;;;;;;;;;;;;;;20.10;53.49;102275.81;7405018;19;1741;-40
2023/02/06 08:26:08;;;;;;;;;;;;;;;20.14;53.72;102280.84;7408401;19;1050;-40
2023/02/06 08:28:36;;;;;;;;;;;;;;;20.09;53.50;102285.66;7406033;19;1863;-40
2023/02/06 08:31:10;;;;;;;;;;;;;;;20.05;53.10;102278.78;7406420;19;2042;-40
2023/02/06 08:33:38;;;;;;;;;;;;;;;19.95;53.51;102293.81;7406370;19;1884;-40
2023/02/06 08:36:07;;;;;;;;;;;;;;;19.93;53.25;102296.59;7405416;19;1760;-40
2023/02/06 08:38:35;;;;;;;;;;;;;;;19.97;53.15;102308.84;7405609;19;1660;-40
2023/02/06 08:41:06;;;;;;;;;;;;;;;19.95;53.27;102293.81;7407308;19;1878;-40
2023/02/06 08:43:35;;;;;;;;;;;;;;;19.96;53.11;102301.78;7407555;19;1224;-40
2023/02/06 08:46:03;;;;;;;;;;;;;;;19.98;53.36;102304.38;7406925;19;1297;-40
2023/02/06 08:48:31;;;;;;;;;;;;;;;19.95;53.36;102309.94;7405243;19;1946;-40
2023/02/06 08:51:03;;;;;;;;;;;;;;;19.97;53.36;102310.69;7405893;19;2076;-40
2023/02/06 08:53:31;;;;;;;;;;;;;;;20.04;53.11;102314.69;7402254;19;1816;-40
2023/02/06 08:56:01;;;;;;;;;;;;;;;20.00;53.22;102308.66;7407401;19;1027;-40
2023/02/06 08:58:32;;;;;;;;;;;;;;;20.04;53.57;102315.53;7405272;19;1361;-40
2023/02/06 09:01:01;;;;;;;;;;;;;;;20.03;53.31;102312.94;7404488;19;1985;-40
2023/02/06 09:03:29;;;;;;;;;;;;;;;19.99;53.20;102314.13;7404914;19;2301;-40
2023/02/06 09:06:02;;;;;;;;;;;;;;;19.99;53.82;102328.41;7405542;19;2020;-40
2023/02/06 09:08:30;;;;;;;;;;;;;;;19.99;53.64;102324.88;7405802;19;2014;-40
2023/02/06 09:10:58;;;;;;;;;;;;;;;20.00;53.69;102318.53;7405930;19;1468;-40
2023/02/06 09:13:27;;;;;;;;;;;;;;;19.97;53.50;102324.13;7405746;19;1597;-40
2023/02/06 09:15:58;;;;;;;;;;;;;;;20.02;53.56;102311.25;7405961;19;1654;-40
2023/02/06 09:18:26;;;;;;;;;;;;;;;19.88;53.85;102311.34;7405757;19;1597;-40
2023/02/06 09:21:04;;;;;;;;;;;;;;;19.92;53.82;102311.00;7405079;19;2281;-40
2023/02/06 09:23:32;;;;;;;;;;;;;;;19.98;53.71;102315.09;7401503;19;2006;-40
2023/02/06 09:26:00;;;;;;;;;;;;;;;20.00;53.68;102323.91;7404785;19;976;-40
2023/02/06 09:28:29;;;;;;;;;;;;;;;19.94;53.91;102316.28;7404814;19;1853;-40
2023/02/06 09:31:00;;;;;;;;;;;;;;;19.98;53.75;102321.34;7402904;19;1861;-40
2023/02/06 09:33:28;;;;;;;;;;;;;;;20.04;53.48;102320.06;7404421;19;1767;-40
2023/02/06 09:36:04;;;;;;;;;;;;;;;20.02;53.33;102316.63;7402615;19;1042;-40
2023/02/06 09:38:32;;;;;;;;;;;;;;;20.04;53.32;102314.69;7404120;19;1480;-41
2023/02/06 09:41:01;;;;;;;;;;;;;;;20.00;53.58;102314.03;7403847;19;1409;-41
2023/02/06 09:43:31;;;;;;;;;;;;;;;20.06;53.44;102302.88;7405871;19;2048;-41
2023/02/06 09:46:04;;;;;;;;;;;;;;;20.04;53.46;102298.56;7404502;19;1773;-40
2023/02/06 09:48:35;;;;;;;;;;;;;;;20.09;53.09;102284.81;7404783;19;1939;-41
2023/02/06 09:51:09;;;;;;;;;;;;;;;20.18;53.29;102305.69;7405566;19;1629;-40
2023/02/06 09:53:44;;;;;;;;;;;;;;;20.07;53.46;102292.97;7403190;19;2016;-40
2023/02/06 09:56:17;;;;;;;;;;;;;;;20.09;53.64;102315.22;7403906;19;1924;-40
2023/02/06 09:58:48;;;;;;;;;;;;;;;19.96;53.96;102315.19;7404580;19;1629;-41
2023/02/06 10:01:21;;;;;;;;;;;;;;;19.97;53.95;102318.75;7401942;19;1707;-40
2023/02/06 10:03:57;;;;;;;;;;;;;;;19.94;54.51;102327.03;7404818;19;1306;-41
2023/02/06 10:06:27;;;;;;;;;;;;;;;20.00;54.32;102329.28;7401313;19;1626;-40
2023/02/06 10:08:59;;;;;;;;;;;;;;;19.96;54.36;102341.19;7403326;19;1846;-40
2023/02/06 10:11:36;;;;;;;;;;;;;;;19.95;54.83;102345.69;7401479;19;2180;-40
2023/02/06 10:14:06;;;;;;;;;;;;;;;20.04;54.53;102314.69;7402172;19;1651;-40
2023/02/06 10:16:41;;;;;;;;;;;;;;;19.97;54.36;102329.47;7401117;19;1870;-40
2023/02/06 10:19:13;;;;;;;;;;;;;;;19.83;54.85;102335.78;7401546;19;1592;-41
2023/02/06 10:21:44;;;;;;;;;;;;;;;19.82;54.88;102302.72;7404686;19;1520;-40
2023/02/06 10:24:16;;;;;;;;;;;;;;;19.96;54.45;102317.03;7400681;19;2275;-40
2023/02/06 10:26:47;;;;;;;;;;;;;;;19.96;54.06;102319.72;7402558;19;1602;-40
2023/02/06 10:29:21;;;;;;;;;;;;;;;19.73;54.11;102318.56;7398153;19;1859;-40
2023/02/06 10:31:58;;;;;;;;;;;;;;;19.64;54.04;102312.81;7400740;19;1864;-40
2023/02/06 10:34:32;;;;;;;;;;;;;;;19.74;54.19;102301.53;7399921;19;1492;-40
2023/02/06 10:37:06;;;;;;;;;;;;;;;19.80;54.38;102301.97;7401185;19;1589;-40
2023/02/06 10:39:58;;;;;;;;;;;;;;;19.85;54.15;102312.38;7400475;19;1769;-40
2023/02/06 10:42:33;;;;;;;;;;;;;;;19.83;54.38;102300.88;7400365;19;1977;-40
2023/02/06 10:45:03;;;;;;;;;;;;;;;19.68;54.51;102313.50;7399842;19;2120;-40
2023/02/06 10:47:37;;;;;;;;;;;;;;;18.77;56.81;102313.94;7402169;19;1883;-40
2023/02/06 10:50:15;;;;;;;;;;;;;;;18.25;57.66;102314.47;7400217;19;1909;-41
2023/02/06 10:52:44;;;;;;;;;;;;;;;17.88;59.23;102300.59;7401602;19;1601;-41
2023/02/06 10:55:19;;;;;;;;;;;;;;;17.77;59.48;102306.56;7401879;19;1714;-41
2023/02/06 10:57:50;;;;;;;;;;;;;;;18.51;57.79;102294.13;7402518;19;1636;-40
2023/02/06 11:00:22;;;;;;;;;;;;;;;19.54;55.15;102305.50;7401840;19;1938;-41
2023/02/06 11:02:56;;;;;;;;;;;;;;;19.73;54.87;102316.75;7402042;19;1892;-40
2023/02/06 11:05:27;;;;;;;;;;;;;;;19.80;54.37;102301.97;7400883;19;1992;-40
2023/02/06 11:07:56;;;;;;;;;;;;;;;19.80;54.62;102314.53;7401075;19;1372;-40
2023/02/06 11:10:26;;;;;;;;;;;;;;;19.66;54.88;102305.53;7400892;19;1888;-40
2023/02/06 11:13:00;;;;;;;;;;;;;;;19.75;54.81;102317.50;7403163;19;1939;-40
2023/02/06 11:15:31;;;;;;;;;;;;;;;19.70;54.97;102316.94;7402349;19;1745;-40
2023/02/06 11:18:03;;;;;;;;;;;;;;;19.65;54.78;102311.00;7402403;19;2004;-40
2023/02/06 11:20:33;;;;;;;;;;;;;;;19.70;55.04;102300.81;7401297;19;1920;-40
2023/02/06 11:23:15;;;;;;;;;;;;;;;19.73;54.65;102299.78;7401730;19;1053;-40
2023/02/06 11:25:43;;;;;;;;;;;;;;;19.77;54.75;102302.16;7402228;19;2021;-40
2023/02/06 11:28:14;;;;;;;;;;;;;;;19.71;54.96;102302.56;7402204;19;1820;-40
2023/02/06 11:30:43;;;;;;;;;;;;;;;19.72;55.08;102296.25;7397952;19;2023;-40
2023/02/06 11:33:21;;;;;;;;;;;;;;;19.69;54.83;102285.66;7402454;19;1755;-40
2023/02/06 11:35:51;;;;;;;;;;;;;;;19.74;54.89;102286.28;7398938;19;1609;-40
2023/02/06 11:38:20;;;;;;;;;;;;;;;19.81;54.46;102284.03;7401284;19;1529;-40
2023/02/06 11:40:56;;;;;;;;;;;;;;;19.79;54.82;102289.47;7401797;19;1010;-40
2023/02/06 11:43:25;;;;;;;;;;;;;;;19.83;54.67;102301.72;7401805;19;1143;-40
2023/02/06 11:46:10;;;;;;;;;;;;;;;19.82;54.58;102285.75;7340888;19;1720;-42
2023/02/06 11:48:42;;;;;;;;;;;;;;;19.88;54.65;102312.19;7399688;19;2731;-42
2023/02/06 11:51:12;;;;;;;;;;;;;;;19.94;54.49;102287.59;7400261;19;1853;-42
2023/02/06 11:53:41;;;;;;;;;;;;;;;20.01;54.45;102306.81;7399270;19;1014;-42
2023/02/06 11:56:17;;;;;;;;;;;;;;;19.83;54.99;102298.19;7400657;19;1937;-42
2023/02/06 11:58:46;;;;;;;;;;;;;;;19.81;54.73;102308.19;7401732;19;1793;-42
2023/02/06 12:01:21;;;;;;;;;;;;;;;19.89;55.12;102307.66;7400100;19;1900;-42
2023/02/06 12:03:58;;;;;;;;;;;;;;;19.85;54.64;102289.06;7399465;19;1810;-42
2023/02/06 12:06:29;;;;;;;;;;;;;;;19.74;55.15;102291.63;7400574;19;1677;-42
2023/02/06 12:08:59;;;;;;;;;;;;;;;19.78;55.27;102293.16;7401174;19;2051;-42
2023/02/06 12:11:29;;;;;;;;;;;;;;;19.75;55.15;102298.72;7397942;19;1879;-42
2023/02/06 12:14:00;;;;;;;;;;;;;;;19.70;55.17;102290.09;7401559;19;1668;-42
2023/02/06 12:16:29;;;;;;;;;;;;;;;19.79;54.94;102296.69;7401151;19;1884;-42
2023/02/06 12:19:01;;;;;;;;;;;;;;;19.77;55.30;102294.09;7400092;19;1446;-42
2023/02/06 12:21:38;;;;;;;;;;;;;;;19.61;55.35;102298.75;7400572;19;1947;-42
2023/02/06 12:24:13;;;;;;;;;;;;;;;19.65;55.51;102294.88;7399908;19;1788;-42
2023/02/06 12:26:43;;;;;;;;;;;;;;;19.66;55.44;102294.81;7399645;19;1866;-42
2023/02/06 12:29:17;;;;;;;;;;;;;;;19.71;55.18;102291.81;7399992;19;1581;-42
2023/02/06 12:31:49;;;;;;;;;;;;;;;19.72;55.24;102293.56;7399182;19;1854;-42
2023/02/06 12:34:22;;;;;;;;;;;;;;;19.70;55.37;102289.25;7400405;19;1970;-42
2023/02/06 12:36:59;;;;;;;;;;;;;;;19.78;55.11;102303.88;7401134;19;1747;-42
2023/02/06 12:39:31;;;;;;;;;;;;;;;19.78;55.40;102303.88;7399583;19;1769;-42
2023/02/06 12:42:17;;;;;;;;;;;;;;;19.75;55.07;102298.72;7399286;19;1489;-42
2023/02/06 12:44:49;;;;;;;;;;;;;;;19.74;55.16;102313.09;7397806;19;2210;-42
2023/02/06 12:47:25;;;;;;;;;;;;;;;19.76;55.01;102300.44;7400704;19;2124;-42
2023/02/06 12:49:59;;;;;;;;;;;;;;;19.81;54.75;102319.75;7399319;19;1868;-42
2023/02/06 12:52:29;;;;;;;;;;;;;;;19.77;55.11;102310.19;7399037;19;2105;-42
2023/02/06 12:55:05;;;;;;;;;;;;;;;19.73;55.17;102306.00;7394053;19;1056;-42
2023/02/06 12:57:33;;;;;;;;;;;;;;;19.73;55.02;102322.09;7399132;19;1754;-42
2023/02/06 13:00:25;;;;;;;;;;;;;;;19.75;55.37;102324.69;7399524;19;2028;-42
2023/02/06 13:03:03;;;;;;;;;;;;;;;19.82;55.20;102316.13;7395218;19;1975;-42